createdAt,value
2019-02-25T00:01:18.964Z,48.94
2019-02-25T00:03:52.445Z,48.77
2019-02-25T00:06:25.922Z,48.62
2019-02-25T00:08:59.398Z,48.94
2019-02-25T00:11:32.810Z,49.00
2019-02-25T00:14:06.158Z,48.97
2019-02-25T00:16:39.787Z,49.01
2019-02-25T00:19:13.104Z,49.05
2019-02-25T00:21:46.483Z,48.78
2019-02-25T00:24:19.799Z,49.14
2019-02-25T00:26:53.178Z,49.11
2019-02-25T00:29:26.498Z,49.00
2019-02-25T00:31:59.869Z,49.15
2019-02-25T00:34:33.214Z,49.39
2019-02-25T00:37:06.625Z,49.42
2019-02-25T00:39:39.949Z,49.49
2019-02-25T00:42:13.306Z,49.43
2019-02-25T00:44:46.625Z,49.41
2019-02-25T00:47:19.978Z,49.50
2019-02-25T00:49:53.358Z,49.34
2019-02-25T00:52:26.701Z,49.12
2019-02-25T00:55:00.030Z,48.86
2019-02-25T00:57:33.467Z,48.76
2019-02-25T01:00:41.161Z,48.87
2019-02-25T01:03:14.512Z,49.09
2019-02-25T01:05:47.906Z,48.96
2019-02-25T01:08:21.334Z,49.08
2019-02-25T01:10:54.733Z,49.32
2019-02-25T01:13:28.116Z,49.24
2019-02-25T01:16:01.448Z,49.09
2019-02-25T01:18:34.807Z,49.16
2019-02-25T01:21:08.145Z,49.21
2019-02-25T01:23:41.581Z,49.17
2019-02-25T01:26:15.060Z,49.27
2019-02-25T01:28:48.420Z,49.04
2019-02-25T01:31:21.750Z,49.05
2019-02-25T01:33:55.194Z,49.14
2019-02-25T01:36:28.599Z,49.21
2019-02-25T01:39:01.970Z,49.36
2019-02-25T01:41:35.320Z,49.41
2019-02-25T01:44:08.809Z,49.47
2019-02-25T01:46:42.132Z,49.67
2019-02-25T01:49:15.501Z,49.75
2019-02-25T01:51:48.825Z,49.78
2019-02-25T01:54:22.178Z,49.74
2019-02-25T01:56:55.510Z,49.63
2019-02-25T01:59:28.865Z,49.71
2019-02-25T02:02:02.201Z,49.71
2019-02-25T02:04:35.635Z,49.57
2019-02-25T02:07:09.047Z,49.79
2019-02-25T02:09:42.400Z,50.03
2019-02-25T02:12:15.794Z,50.15
2019-02-25T02:14:49.178Z,50.24
2019-02-25T02:17:22.491Z,49.91
2019-02-25T02:19:55.865Z,49.79
2019-02-25T02:22:29.190Z,49.83
2019-02-25T02:25:02.560Z,50.13
2019-02-25T02:27:35.898Z,50.29
2019-02-25T02:30:12.454Z,50.19
2019-02-25T02:32:45.770Z,49.96
2019-02-25T02:35:19.357Z,50.11
2019-02-25T02:37:52.765Z,50.10
2019-02-25T02:40:26.137Z,50.10
2019-02-25T02:43:00.620Z,50.28
2019-02-25T02:45:37.236Z,50.40
2019-02-25T02:48:39.280Z,50.25
2019-02-25T02:51:12.646Z,50.15
2019-02-25T02:53:46.199Z,50.09
2019-02-25T02:56:19.719Z,50.22
2019-02-25T02:58:53.266Z,50.44
2019-02-25T03:01:26.676Z,50.18
2019-02-25T03:04:00.245Z,50.18
2019-02-25T03:06:33.772Z,50.16
2019-02-25T03:09:09.343Z,50.15
2019-02-25T03:11:42.750Z,50.25
2019-02-25T03:14:16.257Z,50.19
2019-02-25T03:16:49.729Z,50.17
2019-02-25T03:19:23.331Z,50.12
2019-02-25T03:21:56.907Z,49.94
2019-02-25T03:24:30.549Z,50.08
2019-02-25T03:27:03.974Z,50.17
2019-02-25T03:29:37.422Z,50.30
2019-02-25T03:32:11.179Z,50.48
2019-02-25T03:34:44.604Z,50.57
2019-02-25T03:37:17.996Z,50.61
2019-02-25T03:39:51.473Z,50.77
2019-02-25T03:42:24.991Z,50.78
2019-02-25T03:44:58.448Z,50.72
2019-02-25T03:47:31.866Z,50.82
2019-02-25T03:50:06.426Z,50.82
2019-02-25T03:52:39.869Z,50.78
2019-02-25T03:55:20.863Z,50.61
2019-02-25T03:57:54.329Z,50.36
2019-02-25T04:00:28.011Z,50.68
2019-02-25T04:03:01.453Z,50.58
2019-02-25T04:05:34.982Z,50.75
2019-02-25T04:08:08.433Z,50.80
2019-02-25T04:10:42.070Z,50.87
2019-02-25T04:13:15.488Z,50.61
2019-02-25T04:15:49.048Z,50.66
2019-02-25T04:18:22.598Z,50.88
2019-02-25T04:20:56.028Z,50.91
2019-02-25T04:23:31.322Z,51.12
2019-02-25T04:26:08.094Z,51.23
2019-02-25T04:28:41.660Z,51.24
2019-02-25T04:31:15.219Z,51.08
2019-02-25T04:33:48.734Z,50.96
2019-02-25T04:36:22.186Z,51.07
2019-02-25T04:38:55.792Z,51.25
2019-02-25T04:41:29.288Z,51.31
2019-02-25T04:44:02.806Z,51.30
2019-02-25T04:46:36.303Z,51.20
2019-02-25T04:49:09.679Z,51.22
2019-02-25T04:51:43.315Z,51.24
2019-02-25T04:54:16.678Z,51.20
2019-02-25T04:56:50.190Z,51.02
2019-02-25T04:59:23.673Z,50.93
2019-02-25T05:01:57.198Z,50.97
2019-02-25T05:04:30.558Z,51.05
2019-02-25T05:07:04.239Z,51.24
2019-02-25T05:09:37.698Z,51.13
2019-02-25T05:12:11.144Z,51.24
2019-02-25T05:14:44.630Z,51.39
2019-02-25T05:17:18.143Z,51.33
2019-02-25T05:19:51.667Z,51.08
2019-02-25T05:22:25.130Z,50.97
2019-02-25T05:24:58.641Z,50.96
2019-02-25T05:27:32.229Z,50.93
2019-02-25T05:30:08.810Z,50.92
2019-02-25T05:32:42.487Z,51.01
2019-02-25T05:35:16.112Z,51.05
2019-02-25T05:37:49.468Z,51.29
2019-02-25T05:40:23.066Z,51.59
2019-02-25T05:42:56.633Z,51.67
2019-02-25T05:45:30.034Z,51.82
2019-02-25T05:48:03.532Z,51.89
2019-02-25T05:50:36.994Z,51.80
2019-02-25T05:53:10.419Z,51.75
2019-02-25T05:55:44.048Z,51.68
2019-02-25T05:58:17.568Z,51.72
2019-02-25T06:00:51.124Z,51.84
2019-02-25T06:03:24.723Z,51.94
2019-02-25T06:05:58.228Z,51.96
2019-02-25T06:08:31.652Z,52.02
2019-02-25T06:11:05.202Z,52.02
2019-02-25T06:13:38.736Z,51.98
2019-02-25T06:16:12.301Z,52.07
2019-02-25T06:18:45.800Z,52.20
2019-02-25T06:21:19.197Z,52.20
2019-02-25T06:23:52.819Z,52.20
2019-02-25T06:26:26.344Z,52.22
2019-02-25T06:28:59.816Z,52.40
2019-02-25T06:31:33.321Z,52.62
2019-02-25T06:34:06.740Z,52.79
2019-02-25T06:36:40.307Z,52.61
2019-02-25T06:39:13.803Z,52.70
2019-02-25T06:41:47.306Z,52.87
2019-02-25T06:44:20.722Z,52.62
2019-02-25T06:46:54.260Z,52.66
2019-02-25T06:49:27.680Z,52.96
2019-02-25T06:52:01.128Z,52.95
2019-02-25T06:54:34.658Z,52.96
2019-02-25T06:57:08.052Z,53.04
2019-02-25T06:59:41.586Z,53.15
2019-02-25T07:02:15.151Z,52.91
2019-02-25T07:04:53.439Z,52.78
2019-02-25T07:07:45.042Z,52.80
2019-02-25T07:10:28.966Z,52.65
2019-02-25T07:13:09.855Z,52.46
2019-02-25T07:15:54.126Z,52.47
2019-02-25T07:18:37.950Z,52.42
2019-02-25T07:21:13.061Z,52.25
2019-02-25T07:23:50.804Z,52.14
2019-02-25T07:29:40.869Z,52.02
2019-02-25T07:32:18.531Z,51.91
2019-02-25T07:35:10.044Z,51.86
2019-02-25T07:37:45.074Z,51.73
2019-02-25T07:40:35.231Z,51.58
2019-02-25T07:43:10.375Z,51.66
2019-02-25T07:45:45.364Z,51.48
2019-02-25T07:48:23.281Z,51.33
2019-02-25T07:54:07.400Z,51.13
2019-02-25T07:56:45.220Z,50.62
2019-02-25T07:59:26.208Z,50.61
2019-02-25T08:02:04.159Z,50.22
2019-02-25T08:04:39.165Z,49.85
2019-02-25T08:07:30.454Z,49.89
2019-02-25T08:10:09.476Z,49.70
2019-02-25T08:12:44.577Z,49.45
2019-02-25T08:15:22.631Z,49.22
2019-02-25T08:18:00.945Z,48.94
2019-02-25T08:20:39.763Z,48.69
2019-02-25T08:23:29.886Z,48.45
2019-02-25T08:26:10.756Z,48.18
2019-02-25T08:28:57.667Z,48.05
2019-02-25T08:31:35.773Z,47.97
2019-02-25T08:34:26.804Z,48.11
2019-02-25T08:37:19.749Z,47.93
2019-02-25T08:40:12.241Z,47.69
2019-02-25T08:43:01.278Z,47.79
2019-02-25T08:45:42.250Z,47.92
2019-02-25T08:48:19.851Z,47.53
2019-02-25T08:50:53.279Z,47.51
2019-02-25T08:53:26.675Z,47.29
2019-02-25T08:56:00.125Z,47.19
2019-02-25T08:58:33.731Z,46.66
2019-02-25T09:01:07.250Z,46.40
2019-02-25T09:03:40.643Z,45.92
2019-02-25T09:06:14.156Z,45.68
2019-02-25T09:08:47.762Z,45.25
2019-02-25T09:11:21.287Z,45.42
2019-02-25T09:13:54.862Z,44.64
2019-02-25T09:16:28.291Z,43.68
2019-02-25T09:19:01.815Z,42.71
2019-02-25T09:21:35.266Z,42.20
2019-02-25T09:24:08.820Z,41.89
2019-02-25T09:26:42.319Z,41.30
2019-02-25T09:29:15.742Z,39.68
2019-02-25T09:31:49.301Z,37.88
2019-02-25T09:34:22.752Z,37.74
2019-02-25T09:36:56.183Z,37.64
2019-02-25T09:39:29.611Z,37.94
2019-02-25T09:42:03.188Z,37.87
2019-02-25T09:44:37.970Z,37.72
2019-02-25T09:47:11.738Z,37.32
2019-02-25T09:49:45.206Z,36.62
2019-02-25T09:52:18.600Z,35.18
2019-02-25T09:54:52.079Z,33.44
2019-02-25T09:57:25.552Z,32.02
2019-02-25T09:59:58.914Z,31.65
2019-02-25T10:02:32.374Z,31.80
2019-02-25T10:05:07.893Z,31.40
2019-02-25T10:07:41.350Z,31.52
2019-02-25T10:10:19.049Z,31.34
2019-02-25T10:12:50.758Z,31.08
2019-02-25T10:15:28.719Z,32.21
2019-02-25T10:18:02.180Z,31.97
2019-02-25T10:20:35.610Z,32.02
2019-02-25T10:23:08.994Z,31.79
2019-02-25T10:25:42.418Z,32.56
2019-02-25T10:28:15.972Z,32.68
2019-02-25T10:30:52.728Z,31.76
2019-02-25T10:33:24.526Z,31.92
2019-02-25T10:35:57.876Z,31.99
2019-02-25T10:38:31.340Z,31.98
2019-02-25T10:41:04.767Z,30.85
2019-02-25T10:43:38.160Z,29.31
2019-02-25T10:46:13.464Z,28.74
2019-02-25T10:48:47.529Z,26.58
2019-02-25T10:51:22.218Z,24.13
2019-02-25T10:53:55.716Z,23.37
2019-02-25T10:56:35.180Z,25.20
2019-02-25T10:59:09.959Z,24.06
2019-02-25T11:01:45.339Z,24.83
2019-02-25T11:04:20.050Z,25.54
2019-02-25T11:06:53.868Z,24.08
2019-02-25T11:09:28.971Z,23.33
2019-02-25T11:12:02.397Z,25.22
2019-02-25T11:14:38.984Z,25.63
2019-02-25T11:17:13.779Z,26.52
2019-02-25T11:19:47.135Z,27.21
2019-02-25T11:22:20.552Z,25.89
2019-02-25T11:24:57.263Z,25.78
2019-02-25T11:27:31.311Z,25.95
2019-02-25T11:30:09.789Z,25.19
2019-02-25T11:32:43.897Z,26.25
2019-02-25T11:35:17.464Z,25.50
2019-02-25T11:37:52.072Z,24.53
2019-02-25T11:40:28.397Z,26.80
2019-02-25T11:43:01.307Z,25.02
2019-02-25T11:45:36.339Z,24.26
2019-02-25T11:48:10.063Z,24.28
2019-02-25T11:50:44.813Z,22.35
2019-02-25T11:53:18.271Z,22.53
2019-02-25T11:55:51.689Z,21.62
2019-02-25T11:58:25.189Z,22.34
2019-02-25T12:00:58.616Z,23.30
2019-02-25T12:03:32.010Z,21.65
2019-02-25T12:06:05.430Z,21.71
2019-02-25T12:08:38.823Z,22.24
2019-02-25T12:11:12.246Z,21.89
2019-02-25T12:13:45.696Z,22.09
2019-02-25T12:16:19.245Z,22.57
2019-02-25T12:18:52.647Z,20.56
2019-02-25T12:21:25.993Z,18.73
2019-02-25T12:23:59.374Z,19.50
2019-02-25T12:26:32.905Z,17.91
2019-02-25T12:29:10.853Z,19.59
2019-02-25T12:31:41.758Z,18.26
2019-02-25T12:34:15.225Z,18.73
2019-02-25T12:36:48.591Z,18.00
2019-02-25T12:39:22.041Z,18.28
2019-02-25T12:41:55.465Z,17.33
2019-02-25T12:44:28.950Z,17.15
2019-02-25T12:47:02.468Z,19.83
2019-02-25T12:49:35.926Z,18.47
2019-02-25T12:52:09.351Z,19.58
2019-02-25T12:54:42.880Z,19.26
2019-02-25T12:57:16.349Z,19.60
2019-02-25T12:59:49.726Z,18.65
2019-02-25T13:02:23.151Z,19.08
2019-02-25T13:04:56.664Z,18.36
2019-02-25T13:07:30.216Z,18.29
2019-02-25T13:10:03.747Z,18.40
2019-02-25T13:12:37.175Z,17.11
2019-02-25T13:15:15.512Z,16.62
2019-02-25T13:17:48.929Z,17.46
2019-02-25T13:20:22.454Z,16.85
2019-02-25T13:22:55.811Z,18.03
2019-02-25T13:25:32.532Z,18.09
2019-02-25T13:28:06.088Z,18.68
2019-02-25T13:30:39.567Z,16.82
2019-02-25T13:33:12.913Z,16.76
2019-02-25T13:35:46.303Z,16.75
2019-02-25T13:38:19.833Z,17.35
2019-02-25T13:40:53.289Z,17.57
2019-02-25T13:43:27.530Z,16.88
2019-02-25T13:46:01.003Z,16.48
2019-02-25T13:48:34.516Z,17.25
2019-02-25T13:51:08.114Z,17.13
2019-02-25T13:53:41.525Z,17.24
2019-02-25T13:56:15.053Z,18.10
2019-02-25T13:58:48.478Z,17.95
2019-02-25T14:01:22.006Z,17.23
2019-02-25T14:03:55.611Z,17.87
2019-02-25T14:06:29.067Z,18.74
2019-02-25T14:09:02.565Z,18.17
2019-02-25T14:11:36.085Z,18.25
2019-02-25T14:14:09.505Z,18.27
2019-02-25T14:16:42.960Z,19.19
2019-02-25T14:19:16.441Z,18.69
2019-02-25T14:21:50.012Z,18.74
2019-02-25T14:24:23.591Z,18.98
2019-02-25T14:26:57.145Z,18.00
2019-02-25T14:29:30.657Z,17.85
2019-02-25T14:32:04.182Z,17.67
2019-02-25T14:34:37.644Z,16.34
2019-02-25T14:37:11.380Z,16.37
2019-02-25T14:39:49.329Z,16.49
2019-02-25T14:42:21.022Z,16.35
2019-02-25T14:44:56.373Z,17.07
2019-02-25T14:47:36.711Z,16.64
2019-02-25T14:50:11.387Z,17.16
2019-02-25T14:52:44.927Z,17.65
2019-02-25T14:55:18.420Z,17.14
2019-02-25T14:57:51.801Z,15.90
2019-02-25T15:00:31.411Z,14.84
2019-02-25T15:03:03.963Z,100.00
2019-02-25T15:05:38.490Z,15.40
2019-02-25T15:08:11.875Z,14.98
2019-02-25T15:10:45.304Z,15.14
2019-02-25T15:13:18.758Z,15.79
2019-02-25T15:15:52.174Z,15.93
2019-02-25T15:18:27.041Z,15.37
2019-02-25T15:21:02.506Z,15.97
2019-02-25T15:23:37.369Z,15.17
2019-02-25T15:26:10.896Z,16.40
2019-02-25T15:28:44.317Z,16.10
2019-02-25T15:31:17.871Z,15.93
2019-02-25T15:33:51.367Z,16.23
2019-02-25T15:36:26.525Z,16.63
2019-02-25T15:38:59.903Z,16.74
2019-02-25T15:41:33.363Z,16.81
2019-02-25T15:44:08.562Z,17.31
2019-02-25T15:46:42.032Z,16.85
2019-02-25T15:49:17.276Z,17.51
2019-02-25T15:51:50.982Z,17.22
2019-02-25T15:54:24.403Z,17.55
2019-02-25T15:56:57.961Z,17.68
2019-02-25T15:59:32.227Z,17.92
2019-02-25T16:02:07.515Z,17.98
2019-02-25T16:04:42.361Z,17.87
2019-02-25T16:07:15.879Z,18.17
2019-02-25T16:09:49.566Z,18.49
2019-02-25T16:12:26.859Z,19.04
2019-02-25T16:14:58.729Z,19.22
2019-02-25T16:17:32.187Z,19.25
2019-02-25T16:20:08.658Z,19.61
2019-02-25T16:22:42.108Z,19.73
2019-02-25T16:25:20.455Z,20.10
2019-02-25T16:27:54.227Z,20.41
2019-02-25T16:30:30.466Z,20.36
2019-02-25T16:33:05.000Z,20.71
2019-02-25T16:35:38.987Z,20.87
2019-02-25T16:38:13.342Z,20.66
2019-02-25T16:40:46.768Z,21.06
2019-02-25T16:43:20.223Z,21.23
2019-02-25T16:45:53.568Z,21.61
2019-02-25T16:48:28.106Z,22.16
2019-02-25T16:51:02.712Z,22.80
2019-02-25T16:53:39.074Z,23.23
2019-02-25T16:56:14.195Z,23.66
2019-02-25T16:58:48.230Z,24.18
2019-02-25T17:01:25.795Z,24.28
2019-02-25T17:03:59.676Z,24.19
2019-02-25T17:06:34.315Z,24.17
2019-02-25T17:09:09.869Z,24.77
2019-02-25T17:11:44.452Z,24.79
2019-02-25T17:14:21.165Z,24.92
2019-02-25T17:16:56.623Z,25.30
2019-02-25T17:19:29.557Z,25.45
2019-02-25T17:22:05.166Z,26.17
2019-02-25T17:24:39.267Z,26.83
2019-02-25T17:27:14.164Z,27.49
2019-02-25T17:29:49.111Z,27.77
2019-02-25T17:32:24.955Z,28.26
2019-02-25T17:34:58.637Z,28.89
2019-02-25T17:37:36.069Z,29.26
2019-02-25T17:40:13.161Z,29.72
2019-02-25T17:42:47.361Z,29.99
2019-02-25T17:45:25.080Z,30.52
2019-02-25T17:47:58.796Z,30.84
2019-02-25T17:50:35.194Z,31.09
2019-02-25T17:53:09.773Z,31.63
2019-02-25T17:55:43.531Z,31.99
2019-02-25T17:58:17.436Z,31.81
2019-02-25T18:00:53.963Z,32.15
2019-02-25T18:03:27.498Z,32.74
2019-02-25T18:06:02.881Z,32.85
2019-02-25T18:08:37.270Z,32.97
2019-02-25T18:11:15.643Z,33.25
2019-02-25T18:13:48.801Z,33.24
2019-02-25T18:16:22.587Z,33.03
2019-02-25T18:18:56.877Z,33.56
2019-02-25T18:21:31.177Z,33.40
2019-02-25T18:24:05.113Z,34.15
2019-02-25T18:26:38.931Z,34.98
2019-02-25T18:29:15.645Z,35.40
2019-02-25T18:31:48.077Z,35.52
2019-02-25T18:34:22.006Z,35.82
2019-02-25T18:36:55.856Z,36.39
2019-02-25T18:39:31.322Z,36.21
2019-02-25T18:42:04.802Z,36.02
2019-02-25T18:44:38.580Z,35.90
2019-02-25T18:47:12.556Z,36.26
2019-02-25T18:49:46.200Z,37.12
2019-02-25T18:52:19.873Z,36.79
2019-02-25T18:54:53.575Z,36.69
2019-02-25T18:57:30.037Z,36.68
2019-02-25T19:00:06.210Z,36.92
2019-02-25T19:02:43.592Z,37.03
2019-02-25T19:05:20.849Z,37.25
2019-02-25T19:07:55.510Z,37.35
2019-02-25T19:10:29.547Z,37.32
2019-02-25T19:13:03.182Z,37.46
2019-02-25T19:15:37.427Z,37.73
2019-02-25T19:18:12.758Z,37.88
2019-02-25T19:20:48.898Z,38.11
2019-02-25T19:23:24.755Z,38.27
2019-02-25T19:25:58.713Z,39.14
2019-02-25T19:28:32.373Z,39.64
2019-02-25T19:31:08.338Z,39.13
2019-02-25T19:33:41.489Z,38.95
2019-02-25T19:36:15.215Z,38.95
2019-02-25T19:38:50.282Z,39.53
2019-02-25T19:41:25.977Z,39.27
2019-02-25T19:44:03.296Z,39.98
2019-02-25T19:46:35.326Z,39.96
2019-02-25T19:49:09.796Z,39.91
2019-02-25T19:51:46.128Z,40.08
2019-02-25T19:54:20.452Z,40.44
2019-02-25T19:56:56.210Z,40.54
2019-02-25T19:59:31.047Z,40.64
2019-02-25T20:02:06.899Z,40.54
2019-02-25T20:04:46.411Z,40.53
2019-02-25T20:07:20.473Z,40.36
2019-02-25T20:09:57.882Z,40.59
2019-02-25T20:12:33.403Z,40.34
2019-02-25T20:15:25.190Z,40.58
2019-02-25T20:17:59.216Z,40.97
2019-02-25T20:20:36.452Z,41.27
2019-02-25T20:23:12.644Z,41.64
2019-02-25T20:25:50.711Z,41.87
2019-02-25T20:28:26.286Z,42.07
2019-02-25T20:30:59.912Z,42.07
2019-02-25T20:33:35.157Z,41.83
2019-02-25T20:36:09.751Z,41.83
2019-02-25T20:38:46.495Z,41.89
2019-02-25T20:41:22.202Z,41.94
2019-02-25T20:43:58.832Z,42.02
2019-02-25T20:46:33.129Z,41.93
2019-02-25T20:49:08.258Z,41.97
2019-02-25T20:51:43.467Z,42.06
2019-02-25T20:54:18.502Z,41.82
2019-02-25T20:56:55.374Z,41.81
2019-02-25T20:59:30.911Z,41.76
2019-02-25T21:02:09.284Z,41.75
2019-02-25T21:04:43.363Z,41.80
2019-02-25T21:07:17.006Z,41.82
2019-02-25T21:09:53.187Z,41.92
2019-02-25T21:12:26.729Z,42.13
2019-02-25T21:15:03.037Z,42.35
2019-02-25T21:17:37.840Z,42.34
2019-02-25T21:20:13.795Z,42.14
2019-02-25T21:22:47.621Z,42.42
2019-02-25T21:25:24.446Z,42.74
2019-02-25T21:27:59.187Z,42.62
2019-02-25T21:30:32.206Z,42.54
2019-02-25T21:33:05.894Z,42.83
2019-02-25T21:35:40.211Z,43.15
2019-02-25T21:38:14.906Z,43.66
2019-02-25T21:40:50.444Z,43.81
2019-02-25T21:43:26.851Z,43.38
2019-02-25T21:46:01.648Z,43.21
2019-02-25T21:48:36.980Z,42.95
2019-02-25T21:51:12.342Z,43.04
2019-02-25T21:53:46.566Z,43.44
2019-02-25T21:56:22.690Z,43.55
2019-02-25T21:58:56.063Z,43.78
2019-02-25T22:01:34.401Z,43.74
2019-02-25T22:04:11.239Z,43.67
2019-02-25T22:06:47.097Z,43.93
2019-02-25T22:09:35.407Z,43.94
2019-02-25T22:11:55.267Z,43.93
2019-02-25T22:14:28.687Z,44.30
2019-02-25T22:17:02.216Z,44.19
2019-02-25T22:19:37.473Z,43.94
2019-02-25T22:22:10.848Z,44.58
2019-02-25T22:24:44.390Z,44.79
2019-02-25T22:27:18.561Z,45.56
2019-02-25T22:29:53.108Z,45.30
2019-02-25T22:32:26.541Z,45.02
2019-02-25T22:35:00.455Z,44.98
2019-02-25T22:37:35.314Z,45.26
2019-02-25T22:40:15.055Z,44.99
2019-02-25T22:42:50.477Z,45.25
2019-02-25T22:45:24.148Z,45.50
2019-02-25T22:47:57.541Z,45.20
2019-02-25T22:50:31.217Z,45.29
2019-02-25T22:53:08.892Z,45.31
2019-02-25T22:55:42.670Z,45.70
2019-02-25T22:58:17.147Z,45.87
2019-02-25T23:00:52.724Z,45.82
2019-02-25T23:03:27.628Z,45.82
2019-02-25T23:06:01.247Z,45.94
2019-02-25T23:08:34.742Z,45.95
2019-02-25T23:11:10.319Z,46.17
2019-02-25T23:13:45.557Z,46.59
2019-02-25T23:16:20.813Z,46.25
2019-02-25T23:18:54.152Z,46.13
2019-02-25T23:21:29.336Z,46.64
2019-02-25T23:24:02.988Z,47.00
2019-02-25T23:26:37.910Z,46.51
2019-02-25T23:29:11.287Z,46.72
2019-02-25T23:31:46.461Z,46.79
2019-02-25T23:34:20.435Z,46.73
2019-02-25T23:36:56.193Z,47.13
2019-02-25T23:39:30.285Z,47.14
2019-02-25T23:42:08.831Z,47.35
2019-02-25T23:44:40.347Z,47.36
2019-02-25T23:47:13.957Z,47.42
2019-02-25T23:49:48.600Z,47.49
2019-02-25T23:52:22.206Z,47.70
2019-02-25T23:54:56.482Z,47.82
2019-02-25T23:57:32.607Z,47.79
